Time;durP1;ratioP1;P1;durP2;ratioP2;P2;SDS_P1;SDS_P2;PMS_P1;PMS_P2;Temp;Humidity;BMP_temperature;BMP_pressure;BME280_temperature;BME280_humidity;BME280_pressure;Samples;Min_cycle;Max_cycle;Signal;HPM_P1;HPM_P2
2023/07/17 00:00:59;;;;;;;1.42;0.90;;;25.90;43.80;;;;;;5043551;28;20124;-61
2023/07/17 00:03:25;;;;;;;1.48;0.90;;;25.90;43.90;;;;;;5045486;28;20037;-64
2023/07/17 00:05:51;;;;;;;1.75;1.05;;;25.90;43.90;;;;;;5045971;28;20049;-62
2023/07/17 00:08:17;;;;;;;2.03;0.93;;;25.90;44.00;;;;;;5044923;28;20107;-61
2023/07/17 00:10:44;;;;;;;1.52;0.70;;;25.90;44.00;;;;;;5048419;28;20445;-61
2023/07/17 00:13:09;;;;;;;1.35;0.70;;;25.90;44.00;;;;;;5043916;28;20024;-61
2023/07/17 00:15:35;;;;;;;1.80;0.90;;;25.90;44.10;;;;;;5044847;28;20045;-62
2023/07/17 00:18:01;;;;;;;1.58;0.77;;;25.90;44.20;;;;;;5040332;28;20405;-60
2023/07/17 00:20:27;;;;;;;0.98;0.70;;;25.90;44.20;;;;;;5044667;28;20029;-60
2023/07/17 00:22:53;;;;;;;1.35;0.90;;;25.90;44.30;;;;;;5042691;28;20063;-64
2023/07/17 00:25:20;;;;;;;1.30;0.88;;;25.80;44.30;;;;;;5036083;28;20076;-61
2023/07/17 00:27:46;;;;;;;0.98;0.60;;;25.80;44.90;;;;;;5045036;28;20032;-62
2023/07/17 00:30:12;;;;;;;1.10;0.80;;;25.80;44.40;;;;;;5021770;28;20029;-61
2023/07/17 00:32:38;;;;;;;1.67;0.95;;;25.80;44.40;;;;;;5028610;28;20034;-62
2023/07/17 00:35:07;;;;;;;1.92;0.88;;;25.80;44.50;;;;;;5022241;28;20116;-61
2023/07/17 00:37:33;;;;;;;1.23;0.88;;;25.80;44.50;;;;;;5023168;28;20025;-64
2023/07/17 00:39:59;;;;;;;1.17;0.80;;;25.80;44.60;;;;;;5044853;28;20310;-63
2023/07/17 00:42:25;;;;;;;1.52;0.73;;;25.80;44.60;;;;;;5040486;28;20029;-64
2023/07/17 00:44:52;;;;;;;2.20;0.90;;;25.80;44.70;;;;;;5042359;28;20048;-64
2023/07/17 00:47:19;;;;;;;1.52;0.70;;;25.80;44.80;;;;;;5030431;28;20021;-64
2023/07/17 00:49:47;;;;;;;1.80;0.82;;;25.80;44.80;;;;;;5024583;28;20030;-63
2023/07/17 00:52:14;;;;;;;2.38;1.10;;;25.80;44.80;;;;;;5042870;28;20036;-65
2023/07/17 00:54:42;;;;;;;1.98;0.80;;;25.80;44.80;;;;;;5022719;28;20052;-63
2023/07/17 00:57:11;;;;;;;1.90;1.17;;;25.80;44.90;;;;;;5045732;28;20036;-64
2023/07/17 00:59:38;;;;;;;1.83;1.05;;;25.70;44.90;;;;;;5022946;28;20025;-62
2023/07/17 01:02:05;;;;;;;1.38;0.90;;;25.80;45.00;;;;;;5027706;28;20067;-63
2023/07/17 01:04:32;;;;;;;1.90;1.05;;;25.70;44.90;;;;;;5043986;28;20039;-64
2023/07/17 01:06:58;;;;;;;1.33;0.85;;;25.70;45.00;;;;;;5022681;28;20030;-64
2023/07/17 01:09:24;;;;;;;1.00;0.80;;;25.70;45.00;;;;;;5039502;28;20100;-63
2023/07/17 01:11:50;;;;;;;1.83;1.10;;;25.70;45.00;;;;;;5040349;28;20140;-63
2023/07/17 01:14:19;;;;;;;1.85;1.00;;;25.70;45.10;;;;;;5025209;28;20025;-63
2023/07/17 01:16:49;;;;;;;1.52;0.90;;;25.70;45.10;;;;;;5042534;28;20108;-64
2023/07/17 01:19:15;;;;;;;1.95;1.00;;;25.70;45.20;;;;;;5044991;28;20092;-63
2023/07/17 01:21:53;;;;;;;1.75;1.00;;;25.70;45.20;;;;;;5040144;28;20086;-64
2023/07/17 01:24:20;;;;;;;2.63;1.50;;;25.70;45.30;;;;;;5047731;28;20356;-61
2023/07/17 01:26:46;;;;;;;1.83;1.00;;;25.70;45.30;;;;;;5025894;28;20026;-63
2023/07/17 01:29:12;;;;;;;0.95;0.77;;;25.70;45.40;;;;;;5018810;28;20483;-65
2023/07/17 01:31:38;;;;;;;2.42;1.00;;;25.70;45.40;;;;;;5022434;28;20033;-65
2023/07/17 01:34:04;;;;;;;1.65;1.15;;;25.60;45.40;;;;;;5045407;28;20025;-62
2023/07/17 01:36:30;;;;;;;2.90;1.55;;;25.60;45.40;;;;;;5038768;28;21605;-64
2023/07/17 01:38:56;;;;;;;2.25;1.20;;;25.60;45.50;;;;;;5043248;28;20025;-65
2023/07/17 01:41:23;;;;;;;1.92;1.15;;;25.60;45.50;;;;;;5043533;28;20056;-66
2023/07/17 01:43:49;;;;;;;1.75;1.17;;;25.60;45.60;;;;;;5040342;28;20021;-65
2023/07/17 01:46:15;;;;;;;1.90;1.00;;;25.60;45.60;;;;;;5024754;28;20045;-62
2023/07/17 01:48:42;;;;;;;3.53;1.40;;;25.60;45.60;;;;;;5022136;28;20364;-61
2023/07/17 01:51:08;;;;;;;2.13;1.20;;;25.60;45.70;;;;;;5020060;28;20098;-61
2023/07/17 01:53:34;;;;;;;2.80;1.20;;;25.60;45.70;;;;;;5041792;28;20034;-60
2023/07/17 01:56:00;;;;;;;1.65;0.90;;;25.60;45.70;;;;;;5027439;28;20429;-64
2023/07/17 01:58:27;;;;;;;2.75;1.20;;;25.60;45.80;;;;;;5024598;28;21335;-64
2023/07/17 02:00:54;;;;;;;1.77;0.93;;;25.60;45.80;;;;;;5030786;28;20025;-64
2023/07/17 02:03:20;;;;;;;2.45;1.27;;;25.60;45.80;;;;;;5039915;28;20039;-64
2023/07/17 02:05:46;;;;;;;1.67;0.95;;;25.60;45.80;;;;;;5018818;28;20128;-65
2023/07/17 02:08:12;;;;;;;1.17;0.85;;;25.60;45.90;;;;;;5043006;28;20125;-65
2023/07/17 02:10:43;;;;;;;1.50;1.10;;;25.50;45.90;;;;;;5024808;28;20441;-60
2023/07/17 02:13:10;;;;;;;2.45;1.45;;;25.60;45.90;;;;;;5016664;28;20089;-62
2023/07/17 02:15:36;;;;;;;2.13;1.30;;;25.50;45.90;;;;;;5023049;28;20059;-63
2023/07/17 02:18:02;;;;;;;2.15;0.75;;;25.60;46.00;;;;;;5044608;28;20026;-61
2023/07/17 02:20:28;;;;;;;2.70;1.08;;;25.50;46.50;;;;;;5019951;28;20022;-61
2023/07/17 02:22:54;;;;;;;1.45;0.90;;;25.50;46.00;;;;;;5017166;28;20058;-61
2023/07/17 02:25:20;;;;;;;2.80;1.10;;;25.50;46.00;;;;;;5026663;28;20085;-64
2023/07/17 02:27:46;;;;;;;2.03;1.00;;;25.50;46.00;;;;;;5042204;28;20028;-62
2023/07/17 02:30:12;;;;;;;1.92;1.10;;;25.50;46.00;;;;;;5039146;28;20045;-62
2023/07/17 02:32:38;;;;;;;1.80;1.05;;;25.50;46.00;;;;;;5018060;28;20110;-60
2023/07/17 02:35:05;;;;;;;1.00;0.80;;;25.50;46.00;;;;;;5043831;28;20040;-61
2023/07/17 02:37:31;;;;;;;1.75;1.10;;;25.50;46.00;;;;;;5019528;28;20123;-61
2023/07/17 02:39:57;;;;;;;1.63;1.10;;;25.50;46.00;;;;;;5045499;28;20088;-63
2023/07/17 02:42:23;;;;;;;2.97;1.20;;;25.50;46.00;;;;;;5022626;28;20436;-62
2023/07/17 02:44:49;;;;;;;1.67;1.00;;;25.50;46.00;;;;;;5034327;28;20029;-61
2023/07/17 02:47:15;;;;;;;2.20;1.15;;;25.40;46.00;;;;;;5037824;28;20160;-61
2023/07/17 02:49:42;;;;;;;2.38;1.10;;;25.40;46.00;;;;;;5024587;28;20087;-61
2023/07/17 02:52:09;;;;;;;1.95;1.00;;;25.40;46.10;;;;;;5037812;28;20025;-62
2023/07/17 02:54:39;;;;;;;1.42;0.90;;;25.40;46.00;;;;;;5029909;28;20052;-61
2023/07/17 02:57:05;;;;;;;2.10;1.25;;;25.40;46.10;;;;;;5041969;28;20109;-62
2023/07/17 02:59:32;;;;;;;2.05;1.25;;;25.40;46.10;;;;;;5041726;28;20107;-62
2023/07/17 03:01:58;;;;;;;2.50;1.30;;;25.40;46.10;;;;;;5027728;28;20104;-62
2023/07/17 03:04:27;;;;;;;1.23;0.90;;;25.40;46.10;;;;;;5016292;28;20037;-62
2023/07/17 03:06:53;;;;;;;2.25;1.10;;;25.40;46.10;;;;;;5025603;28;20092;-62
2023/07/17 03:09:19;;;;;;;2.05;1.17;;;25.40;46.20;;;;;;5042740;28;20025;-61
2023/07/17 03:11:44;;;;;;;2.05;1.20;;;25.40;46.20;;;;;;5036901;28;20044;-61
2023/07/17 03:14:10;;;;;;;1.60;0.93;;;25.40;46.20;;;;;;5021644;28;20143;-63
2023/07/17 03:16:36;;;;;;;1.73;1.00;;;25.30;46.10;;;;;;5027153;28;20040;-62
2023/07/17 03:19:03;;;;;;;1.60;0.90;;;25.40;46.20;;;;;;5036503;28;20092;-61
2023/07/17 03:21:29;;;;;;;1.83;1.00;;;25.40;46.20;;;;;;5018236;28;20029;-62
2023/07/17 03:23:55;;;;;;;2.05;0.95;;;25.30;46.10;;;;;;5020339;28;20025;-61
2023/07/17 03:26:20;;;;;;;2.05;1.02;;;25.40;46.20;;;;;;5042027;28;20399;-63
2023/07/17 03:28:46;;;;;;;1.75;0.93;;;25.30;46.10;;;;;;5038613;28;20086;-62
2023/07/17 03:31:13;;;;;;;2.38;0.90;;;25.30;46.20;;;;;;5026644;28;20029;-63
2023/07/17 03:33:39;;;;;;;2.42;1.02;;;25.30;46.20;;;;;;5010868;28;20067;-63
2023/07/17 03:36:06;;;;;;;2.88;0.93;;;25.40;46.20;;;;;;5024107;28;20025;-61
2023/07/17 03:38:32;;;;;;;1.77;0.95;;;25.30;46.20;;;;;;5022822;28;20140;-61
2023/07/17 03:40:58;;;;;;;2.13;1.00;;;25.30;46.20;;;;;;5018175;28;20142;-62
2023/07/17 03:43:24;;;;;;;1.98;0.90;;;25.30;46.20;;;;;;5007885;28;20139;-61
2023/07/17 03:45:51;;;;;;;1.30;0.70;;;25.30;46.20;;;;;;5042472;28;20076;-62
2023/07/17 03:48:17;;;;;;;2.00;1.00;;;25.30;46.20;;;;;;5024270;28;20022;-62
2023/07/17 03:50:43;;;;;;;1.63;1.00;;;25.30;46.20;;;;;;5022262;28;20124;-60
2023/07/17 03:53:09;;;;;;;2.50;1.20;;;25.30;46.20;;;;;;5037196;28;20167;-62
2023/07/17 03:55:36;;;;;;;1.73;0.90;;;25.30;46.20;;;;;;5027654;28;20036;-61
2023/07/17 03:58:03;;;;;;;1.50;1.00;;;25.30;46.20;;;;;;5024775;28;20025;-60
2023/07/17 04:00:30;;;;;;;1.98;1.10;;;25.30;46.10;;;;;;5027767;28;20029;-63
2023/07/17 04:02:55;;;;;;;1.88;1.13;;;25.30;46.80;;;;;;5048690;28;20124;-61
2023/07/17 04:05:30;;;;;;;1.65;1.00;;;25.20;46.10;;;;;;5028244;28;20082;-62
2023/07/17 04:07:57;;;;;;;2.85;1.25;;;25.20;46.10;;;;;;5026463;28;20024;-61
2023/07/17 04:10:23;;;;;;;1.50;0.80;;;25.30;46.10;;;;;;5031673;28;20056;-62
2023/07/17 04:12:49;;;;;;;1.45;1.00;;;25.20;46.00;;;;;;5028072;28;20455;-62
2023/07/17 04:15:16;;;;;;;2.38;1.13;;;25.30;46.10;;;;;;5027794;28;20040;-62
2023/07/17 04:17:42;;;;;;;2.00;0.90;;;25.30;46.10;;;;;;5031576;28;20792;-61
2023/07/17 04:20:09;;;;;;;1.45;0.98;;;25.30;46.10;;;;;;5023936;28;20036;-62
2023/07/17 04:22:35;;;;;;;1.58;0.98;;;25.30;46.00;;;;;;5032771;28;20437;-61
2023/07/17 04:25:03;;;;;;;2.50;1.00;;;25.30;46.00;;;;;;5030297;28;20121;-61
2023/07/17 04:27:30;;;;;;;2.40;1.10;;;25.30;46.00;;;;;;5015670;28;20037;-60
2023/07/17 04:29:58;;;;;;;1.73;0.73;;;25.30;46.00;;;;;;5026817;28;20017;-64
2023/07/17 04:32:24;;;;;;;2.25;0.90;;;25.30;46.00;;;;;;5030281;28;20021;-61
2023/07/17 04:34:50;;;;;;;1.40;0.70;;;25.30;46.00;;;;;;5050408;28;20365;-61
2023/07/17 04:37:19;;;;;;;1.52;0.90;;;25.30;46.00;;;;;;5030265;28;20025;-64
2023/07/17 04:39:45;;;;;;;2.85;1.38;;;25.30;45.90;;;;;;5028711;28;20040;-65
2023/07/17 04:42:12;;;;;;;2.75;1.05;;;25.30;45.90;;;;;;5032635;28;20144;-61
2023/07/17 04:44:38;;;;;;;1.58;1.00;;;25.30;45.90;;;;;;5028471;28;20040;-61
2023/07/17 04:47:05;;;;;;;1.55;1.02;;;25.30;45.90;;;;;;5032458;28;20040;-63
2023/07/17 04:49:31;;;;;;;2.00;1.02;;;25.30;45.90;;;;;;5030465;28;20484;-63
2023/07/17 04:51:57;;;;;;;1.73;0.90;;;25.30;45.80;;;;;;5004040;28;20117;-61
2023/07/17 04:54:23;;;;;;;1.70;1.10;;;25.30;45.80;;;;;;5047909;28;20325;-63
2023/07/17 04:56:49;;;;;;;2.13;1.05;;;25.30;45.80;;;;;;5031922;28;20032;-62
2023/07/17 04:59:20;;;;;;;2.97;1.35;;;25.30;45.80;;;;;;5030416;28;20087;-60
2023/07/17 05:01:46;;;;;;;2.10;1.10;;;25.30;45.70;;;;;;5045993;28;20025;-62
2023/07/17 05:04:12;;;;;;;2.08;1.10;;;25.30;45.70;;;;;;5047434;28;20021;-61
2023/07/17 05:06:38;;;;;;;2.35;1.00;;;25.30;45.70;;;;;;5030924;28;20040;-62
2023/07/17 05:09:05;;;;;;;3.35;1.13;;;25.30;45.70;;;;;;5026817;28;20033;-61
2023/07/17 05:11:32;;;;;;;2.00;1.00;;;25.30;45.70;;;;;;5026347;28;20441;-64
2023/07/17 05:13:58;;;;;;;1.65;1.02;;;25.30;45.70;;;;;;5028641;28;20067;-62
2023/07/17 05:16:24;;;;;;;2.40;0.95;;;25.30;45.70;;;;;;5047334;28;20475;-61
2023/07/17 05:18:50;;;;;;;2.20;1.02;;;25.30;45.60;;;;;;5027383;28;20270;-62
2023/07/17 05:21:17;;;;;;;3.17;1.20;;;25.30;45.60;;;;;;5030051;28;20025;-64
2023/07/17 05:23:43;;;;;;;2.53;1.13;;;25.30;45.60;;;;;;5026475;28;20075;-63
2023/07/17 05:26:09;;;;;;;1.85;1.10;;;25.30;45.60;;;;;;5029234;28;20100;-62
2023/07/17 05:28:37;;;;;;;2.92;1.33;;;25.30;45.50;;;;;;5027148;28;20457;-64
2023/07/17 05:31:04;;;;;;;1.95;1.17;;;25.40;45.60;;;;;;5026894;28;20094;-62
2023/07/17 05:33:30;;;;;;;2.78;1.42;;;25.30;45.50;;;;;;5024799;28;20029;-63
2023/07/17 05:35:57;;;;;;;2.78;1.20;;;25.40;45.50;;;;;;5012011;28;20365;-60
2023/07/17 05:38:24;;;;;;;2.40;1.33;;;25.40;45.50;;;;;;5031019;28;20041;-61
2023/07/17 05:40:58;;;;;;;4.13;1.30;;;25.30;45.40;;;;;;5026371;28;20127;-62
2023/07/17 05:43:24;;;;;;;1.95;1.33;;;25.30;45.40;;;;;;5027428;28;20106;-61
2023/07/17 05:45:58;;;;;;;2.00;1.20;;;25.40;45.40;;;;;;5026952;28;20033;-63
2023/07/17 05:48:26;;;;;;;2.22;1.52;;;25.30;45.40;;;;;;5005940;28;20034;-61
2023/07/17 05:50:52;;;;;;;3.47;1.73;;;25.30;45.30;;;;;;5028572;28;20388;-64
2023/07/17 05:53:18;;;;;;;3.20;1.58;;;25.40;45.40;;;;;;5028117;28;20068;-62
2023/07/17 05:55:44;;;;;;;3.30;1.45;;;25.40;45.40;;;;;;5009441;28;20073;-62
2023/07/17 05:58:11;;;;;;;2.58;1.42;;;25.30;45.20;;;;;;5022598;28;20017;-62
2023/07/17 06:00:37;;;;;;;3.20;1.63;;;25.40;45.30;;;;;;5027202;28;20148;-63
2023/07/17 06:03:03;;;;;;;4.00;1.75;;;25.40;45.30;;;;;;5023492;28;20068;-63
2023/07/17 06:05:28;;;;;;;3.17;1.75;;;25.40;45.30;;;;;;5027033;28;20040;-63
2023/07/17 06:07:54;;;;;;;3.15;1.90;;;25.30;45.20;;;;;;5028206;28;20413;-61
2023/07/17 06:10:20;;;;;;;2.97;1.88;;;25.40;45.90;;;;;;5026130;28;20080;-62
2023/07/17 06:12:46;;;;;;;3.58;1.90;;;25.40;45.30;;;;;;5027433;28;20037;-60
2023/07/17 06:15:13;;;;;;;4.28;2.03;;;25.30;45.20;;;;;;5028919;28;20231;-62
2023/07/17 06:17:39;;;;;;;4.35;2.08;;;25.30;45.10;;;;;;5021657;28;20046;-62
2023/07/17 06:20:09;;;;;;;4.45;2.20;;;25.30;45.10;;;;;;5028337;28;20025;-60
2023/07/17 06:22:35;;;;;;;7.80;3.40;;;25.40;45.20;;;;;;5028790;28;20060;-61
2023/07/17 06:25:02;;;;;;;5.82;2.83;;;25.40;45.10;;;;;;5028390;28;20060;-61
2023/07/17 06:27:28;;;;;;;6.13;2.97;;;25.40;45.10;;;;;;5027262;28;20017;-63
2023/07/17 06:29:54;;;;;;;5.43;3.13;;;25.40;45.10;;;;;;5029308;28;20408;-60
2023/07/17 06:32:20;;;;;;;4.45;2.80;;;25.40;45.10;;;;;;5026843;28;20083;-61
2023/07/17 06:34:47;;;;;;;5.20;3.03;;;25.40;45.10;;;;;;5019076;28;20033;-62
2023/07/17 06:37:13;;;;;;;5.20;2.95;;;25.40;45.10;;;;;;5022248;28;20037;-61
2023/07/17 06:39:39;;;;;;;4.85;2.78;;;25.40;45.10;;;;;;5024956;28;20475;-63
2023/07/17 06:42:05;;;;;;;5.88;3.17;;;25.40;45.10;;;;;;5024794;28;21484;-61
2023/07/17 06:44:38;;;;;;;5.57;2.67;;;25.40;45.10;;;;;;5025239;28;20041;-62
2023/07/17 06:47:05;;;;;;;6.03;3.17;;;25.40;45.30;;;;;;5047106;28;20068;-61
2023/07/17 06:49:31;;;;;;;5.57;2.85;;;25.40;45.10;;;;;;5025604;28;20071;-60
2023/07/17 06:51:56;;;;;;;4.63;2.80;;;25.40;45.00;;;;;;5046009;28;20120;-60
2023/07/17 06:54:22;;;;;;;4.43;3.00;;;25.40;45.00;;;;;;5046456;28;20405;-63
2023/07/17 06:56:48;;;;;;;4.32;2.75;;;25.40;45.10;;;;;;5027332;28;20029;-61
2023/07/17 06:59:15;;;;;;;4.95;3.20;;;25.40;45.00;;;;;;5048002;28;20783;-61
2023/07/17 07:01:41;;;;;;;4.47;2.85;;;25.40;45.10;;;;;;5041485;28;20025;-63
2023/07/17 07:04:07;;;;;;;4.75;2.67;;;25.40;45.10;;;;;;5048059;28;20361;-62
2023/07/17 07:06:33;;;;;;;5.05;3.25;;;25.40;45.10;;;;;;5025281;28;20068;-63
2023/07/17 07:08:59;;;;;;;8.65;3.83;;;25.40;45.00;;;;;;5030877;28;20024;-62
2023/07/17 07:11:25;;;;;;;5.07;2.90;;;25.40;45.00;;;;;;5051056;28;20021;-60
2023/07/17 07:13:50;;;;;;;4.72;2.50;;;25.40;45.00;;;;;;5045975;28;20469;-62
2023/07/17 07:16:16;;;;;;;4.55;2.80;;;25.50;45.00;;;;;;5036698;28;20044;-63
2023/07/17 07:18:42;;;;;;;4.03;2.83;;;25.50;45.00;;;;;;5022807;28;20455;-63
2023/07/17 07:21:08;;;;;;;7.20;3.03;;;25.50;45.00;;;;;;5049266;28;20102;-63
2023/07/17 07:23:34;;;;;;;5.35;3.20;;;25.50;44.90;;;;;;5050491;28;20457;-62
2023/07/17 07:26:00;;;;;;;4.65;2.88;;;25.50;45.00;;;;;;5051721;28;20039;-61
2023/07/17 07:28:26;;;;;;;5.55;3.28;;;25.50;44.90;;;;;;5032492;28;20435;-63
2023/07/17 07:30:57;;;;;;;5.15;2.88;;;25.50;44.90;;;;;;5031574;28;20304;-63
2023/07/17 07:33:24;;;;;;;4.63;2.97;;;25.50;44.90;;;;;;5031733;28;20364;-62
2023/07/17 07:35:50;;;;;;;4.50;2.75;;;25.50;44.90;;;;;;5049657;28;20052;-62
2023/07/17 07:38:16;;;;;;;5.13;3.10;;;25.50;44.80;;;;;;5043630;28;20132;-61
2023/07/17 07:40:41;;;;;;;4.78;3.15;;;25.50;44.80;;;;;;5050301;28;20056;-62
2023/07/17 07:43:07;;;;;;;4.38;2.92;;;25.50;44.80;;;;;;5051436;28;20116;-63
2023/07/17 07:45:33;;;;;;;4.70;2.78;;;25.50;44.80;;;;;;5046658;28;20092;-62
2023/07/17 07:47:59;;;;;;;5.45;2.85;;;25.50;44.80;;;;;;5051965;28;20100;-62
2023/07/17 07:50:25;;;;;;;3.85;2.97;;;25.50;44.80;;;;;;5024825;28;20167;-62
2023/07/17 07:52:51;;;;;;;4.47;2.92;;;25.50;44.80;;;;;;5049768;28;20017;-63
2023/07/17 07:55:17;;;;;;;4.55;3.10;;;25.60;44.80;;;;;;5049683;28;20158;-60
2023/07/17 07:57:43;;;;;;;3.25;2.55;;;25.50;44.70;;;;;;5048877;28;20137;-62
2023/07/17 08:00:09;;;;;;;4.15;2.60;;;25.60;44.80;;;;;;5050467;28;20388;-62
2023/07/17 08:02:44;;;;;;;4.25;2.60;;;25.60;44.70;;;;;;5050953;28;20452;-61
2023/07/17 08:05:10;;;;;;;5.00;2.85;;;25.60;44.70;;;;;;5028388;28;20028;-63
2023/07/17 08:07:36;;;;;;;3.88;2.83;;;25.60;44.60;;;;;;5049948;28;20395;-62
2023/07/17 08:10:03;;;;;;;3.35;2.38;;;25.60;44.60;;;;;;5049527;28;20028;-64
2023/07/17 08:12:30;;;;;;;3.85;2.72;;;25.60;44.50;;;;;;5050919;28;20124;-63
2023/07/17 08:14:56;;;;;;;3.53;2.58;;;25.60;44.50;;;;;;5050617;28;20060;-63
2023/07/17 08:17:22;;;;;;;3.72;2.55;;;25.60;44.40;;;;;;5050111;28;20107;-63
2023/07/17 08:19:48;;;;;;;3.75;2.80;;;25.60;44.40;;;;;;5028214;28;20429;-63
2023/07/17 08:22:13;;;;;;;3.47;2.50;;;25.60;44.30;;;;;;5055968;28;20538;-62
2023/07/17 08:24:39;;;;;;;5.63;2.70;;;25.60;44.30;;;;;;5055520;28;20123;-63
2023/07/17 08:27:06;;;;;;;4.18;2.67;;;25.60;44.20;;;;;;5055594;28;20087;-62
2023/07/17 08:29:31;;;;;;;4.07;2.53;;;25.60;44.20;;;;;;5055494;28;20116;-61
2023/07/17 08:31:57;;;;;;;4.55;2.63;;;25.60;44.10;;;;;;5055411;28;20056;-62
2023/07/17 08:34:23;;;;;;;3.67;2.42;;;25.60;44.00;;;;;;5036916;28;20021;-62
2023/07/17 08:36:50;;;;;;;4.63;2.22;;;25.60;43.90;;;;;;5017736;28;20037;-61
2023/07/17 08:39:16;;;;;;;3.17;1.92;;;25.60;43.90;;;;;;5035192;28;20033;-61
2023/07/17 08:41:50;;;;;;;3.60;2.30;;;25.60;43.80;;;;;;5017616;28;20454;-62
2023/07/17 08:44:19;;;;;;;3.65;2.42;;;25.60;43.80;;;;;;5034973;28;20461;-61
2023/07/17 08:46:47;;;;;;;3.75;2.20;;;25.60;43.70;;;;;;5034885;28;20542;-62
2023/07/17 08:49:16;;;;;;;4.53;2.78;;;25.60;43.80;;;;;;5034995;28;20216;-61
2023/07/17 08:51:42;;;;;;;3.20;2.20;;;25.60;43.70;;;;;;5055121;28;20051;-62
2023/07/17 08:54:11;;;;;;;3.20;2.20;;;25.60;43.70;;;;;;5055216;28;20032;-63
2023/07/17 08:56:37;;;;;;;3.97;2.10;;;25.60;43.70;;;;;;5054750;28;20450;-63
2023/07/17 08:59:04;;;;;;;3.42;2.20;;;25.60;43.60;;;;;;5054777;28;20032;-63
2023/07/17 09:01:30;;;;;;;3.28;2.30;;;25.60;43.50;;;;;;5037252;28;20032;-64
2023/07/17 09:03:56;;;;;;;3.45;2.00;;;25.60;43.40;;;;;;5054262;28;20147;-63
2023/07/17 09:06:24;;;;;;;3.33;2.17;;;25.60;43.40;;;;;;5055046;28;20048;-62
2023/07/17 09:08:52;;;;;;;4.63;2.53;;;25.60;43.30;;;;;;5054718;28;20051;-61
2023/07/17 09:11:18;;;;;;;3.58;2.30;;;25.70;43.40;;;;;;5054673;28;20116;-61
2023/07/17 09:13:45;;;;;;;2.88;2.00;;;25.70;43.40;;;;;;5054461;28;20438;-63
2023/07/17 09:16:23;;;;;;;3.10;2.28;;;25.70;43.30;;;;;;5054795;28;20087;-62
2023/07/17 09:18:50;;;;;;;2.95;2.00;;;25.70;43.30;;;;;;5053337;28;20503;-63
2023/07/17 09:21:22;;;;;;;3.17;2.20;;;25.60;43.20;;;;;;5053767;28;20048;-62
2023/07/17 09:23:51;;;;;;;2.78;1.98;;;25.70;43.20;;;;;;5054152;28;20154;-62
2023/07/17 09:26:22;;;;;;;2.50;1.67;;;25.70;43.10;;;;;;5054376;28;20160;-62
2023/07/17 09:28:53;;;;;;;3.08;1.48;;;25.70;43.10;;;;;;5054532;28;20107;-61
2023/07/17 09:31:29;;;;;;;4.65;2.00;;;25.70;43.00;;;;;;5053125;28;20029;-62
2023/07/17 09:34:00;;;;;;;2.33;1.70;;;25.70;43.00;;;;;;5035745;28;20068;-63
2023/07/17 09:36:26;;;;;;;2.65;1.77;;;25.70;42.90;;;;;;5039570;28;20048;-63
2023/07/17 09:38:55;;;;;;;3.90;2.20;;;25.70;42.90;;;;;;5033899;28;20384;-62
2023/07/17 09:41:25;;;;;;;3.30;2.05;;;25.70;42.90;;;;;;5016272;28;20045;-63
2023/07/17 09:44:05;;;;;;;3.60;1.60;;;25.70;42.80;;;;;;5034733;28;20039;-63
2023/07/17 09:46:36;;;;;;;3.55;1.85;;;25.70;42.80;;;;;;5034286;28;20049;-61
2023/07/17 09:49:09;;;;;;;3.88;1.80;;;25.70;42.80;;;;;;5048233;28;20112;-64
2023/07/17 09:51:36;;;;;;;2.87;1.83;;;25.70;42.70;;;;;;5054088;28;20104;-63
2023/07/17 09:54:03;;;;;;;3.72;2.05;;;25.70;42.70;;;;;;5036093;28;20033;-63
2023/07/17 09:56:30;;;;;;;2.55;1.67;;;25.80;42.70;;;;;;5053764;28;20033;-63
2023/07/17 09:59:17;;;;;;;2.45;1.40;;;25.70;42.60;;;;;;5035981;28;20032;-62
2023/07/17 10:01:47;;;;;;;4.63;1.70;;;25.80;42.60;;;;;;5053803;28;20029;-62
2023/07/17 10:04:17;;;;;;;3.22;1.70;;;25.80;42.60;;;;;;5052585;28;20179;-63
2023/07/17 10:06:44;;;;;;;3.08;1.60;;;25.80;42.50;;;;;;5053820;28;20090;-62
2023/07/17 10:09:14;;;;;;;1.80;1.50;;;25.80;42.40;;;;;;5035655;28;20361;-63
2023/07/17 10:11:41;;;;;;;2.55;1.52;;;25.80;43.00;;;;;;5053363;28;20211;-62
2023/07/17 10:14:08;;;;;;;3.08;1.70;;;25.70;42.20;;;;;;5053835;28;20362;-63
2023/07/17 10:16:34;;;;;;;2.97;1.60;;;25.80;42.30;;;;;;5053751;28;20179;-61
2023/07/17 10:19:01;;;;;;;2.60;1.45;;;25.80;42.30;;;;;;5053685;28;20107;-62
2023/07/17 10:21:27;;;;;;;3.13;1.75;;;25.80;42.30;;;;;;5053329;28;20059;-63
2023/07/17 10:23:53;;;;;;;3.40;1.80;;;25.80;42.20;;;;;;5053165;28;20028;-64
2023/07/17 10:26:20;;;;;;;2.67;1.63;;;25.70;42.80;;;;;;5035958;28;20037;-63
2023/07/17 10:28:53;;;;;;;3.45;1.83;;;25.80;42.20;;;;;;5053464;28;20040;-64
2023/07/17 10:31:25;;;;;;;1.90;1.23;;;25.80;42.20;;;;;;5053330;28;20033;-62
2023/07/17 10:33:53;;;;;;;2.53;1.48;;;25.80;42.10;;;;;;5036337;28;20036;-64
2023/07/17 10:36:42;;;;;;;2.20;1.70;;;25.80;42.10;;;;;;5039626;28;20099;-64
2023/07/17 10:39:15;;;;;;;3.03;1.70;;;25.80;42.20;;;;;;5044169;28;20417;-64
2023/07/17 10:41:42;;;;;;;2.60;1.70;;;25.80;42.30;;;;;;5041668;28;20028;-64
2023/07/17 10:44:08;;;;;;;2.28;1.50;;;25.80;42.40;;;;;;5046917;28;20044;-64
2023/07/17 10:46:36;;;;;;;3.65;1.70;;;25.80;42.40;;;;;;5026877;28;20571;-64
2023/07/17 10:49:08;;;;;;;2.95;1.35;;;25.90;42.40;;;;;;5021635;28;20025;-64
2023/07/17 10:51:42;;;;;;;2.60;1.48;;;25.90;42.40;;;;;;5024093;28;20065;-66
2023/07/17 10:54:08;;;;;;;1.90;1.40;;;26.00;42.40;;;;;;5025074;28;20029;-65
2023/07/17 10:56:34;;;;;;;2.42;1.40;;;26.00;42.30;;;;;;5021110;28;20057;-61
2023/07/17 10:59:00;;;;;;;2.10;1.30;;;26.10;42.30;;;;;;5013084;28;20094;-61
2023/07/17 11:01:27;;;;;;;2.55;1.60;;;26.20;42.20;;;;;;5013617;28;20037;-60
2023/07/17 11:03:53;;;;;;;1.23;1.05;;;26.30;42.30;;;;;;5017714;28;20074;-61
2023/07/17 11:06:23;;;;;;;1.73;1.20;;;26.30;42.10;;;;;;5029872;28;20041;-61
2023/07/17 11:08:50;;;;;;;2.60;1.27;;;26.40;42.10;;;;;;5029577;28;20099;-61
2023/07/17 11:11:17;;;;;;;1.27;0.90;;;26.40;42.00;;;;;;5028613;28;20048;-62
2023/07/17 11:13:50;;;;;;;1.98;1.30;;;26.40;42.00;;;;;;5030997;28;20414;-62
2023/07/17 11:16:16;;;;;;;1.67;0.95;;;26.40;42.00;;;;;;5019086;28;20421;-64
2023/07/17 11:18:51;;;;;;;1.50;1.08;;;26.40;42.00;;;;;;5025430;28;20108;-64
2023/07/17 11:21:21;;;;;;;1.90;1.05;;;26.40;42.20;;;;;;5025065;28;20407;-64
2023/07/17 11:23:49;;;;;;;1.52;1.02;;;26.40;42.30;;;;;;5031061;28;20117;-65
2023/07/17 11:26:38;;;;;;;1.27;0.88;;;26.40;42.40;;;;;;5027964;28;21453;-63
2023/07/17 11:29:04;;;;;;;1.67;1.05;;;26.40;42.40;;;;;;5018760;28;20422;-63
2023/07/17 11:31:33;;;;;;;1.80;1.00;;;26.50;42.40;;;;;;5024016;28;20108;-63
2023/07/17 11:34:04;;;;;;;1.85;1.05;;;26.50;42.40;;;;;;5023332;28;20034;-64
2023/07/17 11:36:47;;;;;;;1.67;0.70;;;26.50;42.30;;;;;;5024899;28;20041;-64
2023/07/17 11:39:21;;;;;;;2.08;1.00;;;26.60;42.30;;;;;;5017607;28;20428;-63
2023/07/17 11:41:48;;;;;;;;;;;26.70;42.30;;;;;;5017675;28;20030;-66
2023/07/17 11:44:25;;;;;;;1.00;0.80;;;26.70;42.20;;;;;;5018337;28;19917;-63
2023/07/17 11:46:58;;;;;;;1.60;0.80;;;26.80;42.20;;;;;;5049429;28;20045;-66
2023/07/17 11:49:26;;;;;;;1.73;0.93;;;26.80;42.00;;;;;;5032712;28;20025;-64
2023/07/17 11:51:52;;;;;;;1.63;0.85;;;26.90;42.00;;;;;;5035022;28;20071;-64
2023/07/17 11:54:18;;;;;;;1.35;0.90;;;26.90;41.90;;;;;;5052724;28;20044;-64
2023/07/17 11:56:45;;;;;;;3.25;0.98;;;27.00;41.80;;;;;;5052465;28;20045;-63
2023/07/17 11:59:22;;;;;;;1.70;1.00;;;27.00;41.70;;;;;;5046207;28;20029;-65
2023/07/17 12:01:48;;;;;;;1.60;0.93;;;27.00;41.60;;;;;;5044967;28;20044;-65
2023/07/17 12:04:16;;;;;;;1.67;0.98;;;27.10;41.60;;;;;;5045439;28;20033;-63
2023/07/17 12:06:42;;;;;;;2.70;1.10;;;27.10;41.60;;;;;;5045911;28;20460;-63
2023/07/17 12:09:10;;;;;;;1.70;0.98;;;27.20;41.50;;;;;;5049807;28;20029;-63
2023/07/17 12:11:36;;;;;;;1.92;0.90;;;27.20;41.50;;;;;;5050177;28;20127;-63
2023/07/17 12:14:02;;;;;;;3.42;1.10;;;27.20;41.50;;;;;;5048604;28;20094;-60
2023/07/17 12:16:29;;;;;;;1.75;1.00;;;27.20;41.50;;;;;;5048540;28;20114;-63
2023/07/17 12:18:55;;;;;;;5.07;1.08;;;27.30;41.60;;;;;;5047225;28;20039;-65
2023/07/17 12:21:21;;;;;;;1.90;1.05;;;27.30;41.60;;;;;;5046101;28;20068;-66
2023/07/17 12:23:47;;;;;;;2.70;1.17;;;27.30;41.60;;;;;;5046181;28;20017;-62
2023/07/17 12:26:13;;;;;;;2.33;1.17;;;27.30;41.60;;;;;;5047479;28;20029;-61
2023/07/17 12:28:39;;;;;;;2.38;1.08;;;27.30;41.60;;;;;;5047386;28;20309;-62
2023/07/17 12:31:05;;;;;;;2.78;1.00;;;27.30;41.60;;;;;;5049168;28;20419;-61
2023/07/17 12:33:30;;;;;;;3.03;1.17;;;27.30;41.70;;;;;;5048162;28;20025;-61
2023/07/17 12:35:56;;;;;;;2.33;1.30;;;27.30;41.70;;;;;;5043999;28;20201;-60
2023/07/17 12:38:22;;;;;;;3.67;1.35;;;27.30;41.80;;;;;;5046406;28;20484;-60
2023/07/17 12:40:49;;;;;;;3.85;1.25;;;27.30;41.90;;;;;;5047925;28;20357;-63
2023/07/17 12:43:15;;;;;;;2.63;1.23;;;27.30;42.00;;;;;;5049428;28;20033;-62
2023/07/17 12:45:41;;;;;;;1.92;1.15;;;27.20;42.10;;;;;;5048729;28;20055;-62
2023/07/17 12:48:09;;;;;;;2.08;1.00;;;27.20;42.20;;;;;;5049024;28;20045;-61